createdAt,value
2023-04-24T00:01:02.788Z,16.23
2023-04-24T00:03:30.214Z,16.27
2023-04-24T00:05:57.077Z,15.88
2023-04-24T00:08:24.667Z,16.20
2023-04-24T00:10:52.951Z,15.48
2023-04-24T00:13:19.689Z,14.80
2023-04-24T00:15:46.339Z,16.02
2023-04-24T00:18:13.194Z,17.48
2023-04-24T00:20:40.512Z,17.80
2023-04-24T00:23:07.275Z,18.85
2023-04-24T00:25:33.907Z,17.70
2023-04-24T00:28:00.581Z,18.08
2023-04-24T00:30:27.352Z,18.05
2023-04-24T00:32:53.988Z,18.08
2023-04-24T00:35:20.976Z,17.10
2023-04-24T00:37:47.857Z,18.20
2023-04-24T00:40:14.611Z,17.55
2023-04-24T00:42:42.662Z,17.35
2023-04-24T00:45:09.713Z,17.75
2023-04-24T00:47:36.875Z,17.70
2023-04-24T00:50:06.460Z,17.52
2023-04-24T00:52:33.673Z,17.13
2023-04-24T00:55:00.891Z,17.27
2023-04-24T00:57:27.734Z,16.95
2023-04-24T00:59:54.863Z,17.40
2023-04-24T01:02:23.304Z,16.65
2023-04-24T01:04:53.604Z,16.20
2023-04-24T01:07:23.437Z,16.60
2023-04-24T01:09:52.939Z,16.20
2023-04-24T01:12:20.303Z,15.70
2023-04-24T01:14:47.273Z,16.30
2023-04-24T01:17:16.163Z,15.93
2023-04-24T01:19:45.866Z,16.23
2023-04-24T01:22:15.033Z,17.17
2023-04-24T01:24:42.727Z,16.15
2023-04-24T01:27:11.168Z,16.60
2023-04-24T01:29:38.220Z,17.45
2023-04-24T01:32:06.231Z,16.85
2023-04-24T01:34:33.632Z,17.00
2023-04-24T01:37:00.684Z,18.75
2023-04-24T01:39:29.317Z,17.00
2023-04-24T01:41:56.672Z,17.38
2023-04-24T01:44:23.825Z,17.17
2023-04-24T01:46:50.591Z,17.80
2023-04-24T01:49:17.451Z,17.80
2023-04-24T01:51:45.665Z,17.83
2023-04-24T01:54:12.493Z,17.27
2023-04-24T01:56:45.660Z,17.40
2023-04-24T01:59:13.152Z,16.80
2023-04-24T02:01:40.574Z,16.65
2023-04-24T02:04:08.504Z,17.30
2023-04-24T02:06:36.122Z,16.58
2023-04-24T02:09:04.062Z,16.08
2023-04-24T02:11:30.928Z,15.93
2023-04-24T02:13:58.138Z,15.50
2023-04-24T02:16:24.845Z,15.32
2023-04-24T02:18:51.556Z,15.20
2023-04-24T02:21:18.338Z,16.00
2023-04-24T02:23:45.132Z,15.60
2023-04-24T02:26:13.656Z,15.13
2023-04-24T02:28:40.724Z,15.48
2023-04-24T02:31:07.750Z,15.50
2023-04-24T02:33:34.419Z,15.20
2023-04-24T02:36:01.196Z,15.10
2023-04-24T02:38:27.858Z,15.23
2023-04-24T02:40:54.692Z,14.73
2023-04-24T02:43:21.423Z,14.95
2023-04-24T02:45:48.143Z,14.93
2023-04-24T02:48:14.835Z,14.30
2023-04-24T02:50:41.666Z,14.52
2023-04-24T02:53:08.326Z,14.23
2023-04-24T02:55:35.253Z,14.35
2023-04-24T02:58:02.014Z,13.95
2023-04-24T03:00:28.717Z,13.88
2023-04-24T03:02:55.615Z,13.43
2023-04-24T03:05:22.513Z,13.65
2023-04-24T03:07:49.389Z,13.82
2023-04-24T03:10:16.299Z,13.23
2023-04-24T03:12:42.984Z,13.40
2023-04-24T03:15:10.139Z,13.77
2023-04-24T03:17:37.935Z,13.45
2023-04-24T03:20:07.010Z,13.70
2023-04-24T03:22:34.637Z,13.70
2023-04-24T03:25:02.902Z,13.63
2023-04-24T03:27:29.652Z,14.40
2023-04-24T03:30:01.753Z,14.07
2023-04-24T03:32:49.068Z,13.30
2023-04-24T03:35:22.182Z,13.13
2023-04-24T03:37:49.180Z,12.77
2023-04-24T03:43:03.244Z,12.02
2023-04-24T03:45:30.025Z,11.57
2023-04-24T03:47:57.329Z,11.43
2023-04-24T03:50:24.467Z,11.35
2023-04-24T03:52:51.341Z,11.68
2023-04-24T03:55:29.338Z,11.13
2023-04-24T03:57:55.991Z,10.60
2023-04-24T04:00:23.213Z,10.50
2023-04-24T04:03:02.493Z,10.05
2023-04-24T04:05:29.590Z,10.00
2023-04-24T04:07:57.259Z,10.57
2023-04-24T04:10:24.443Z,10.65
2023-04-24T04:12:51.122Z,10.23
2023-04-24T04:15:17.964Z,10.43
2023-04-24T04:17:44.716Z,11.23
2023-04-24T04:20:12.738Z,11.20
2023-04-24T04:22:42.659Z,11.38
2023-04-24T04:25:14.152Z,10.23
2023-04-24T04:27:42.423Z,11.45
2023-04-24T04:30:11.327Z,9.98
2023-04-24T04:32:47.109Z,9.23
2023-04-24T04:35:14.134Z,7.90
2023-04-24T04:37:41.574Z,7.05
2023-04-24T04:40:20.941Z,7.90
2023-04-24T04:42:56.878Z,5.32
2023-04-24T04:45:25.321Z,6.32
2023-04-24T04:48:15.120Z,7.03
2023-04-24T04:50:42.040Z,6.72
2023-04-24T04:53:08.952Z,5.82
2023-04-24T04:55:38.703Z,6.00
2023-04-24T04:58:11.314Z,6.43
2023-04-24T05:00:38.578Z,6.88
2023-04-24T05:03:21.418Z,8.07
2023-04-24T05:05:53.107Z,10.02
2023-04-24T05:08:27.039Z,10.35
2023-04-24T05:10:55.692Z,12.60
2023-04-24T05:13:35.612Z,13.40
2023-04-24T05:16:08.251Z,12.65
2023-04-24T05:18:35.595Z,14.15
2023-04-24T05:21:02.678Z,14.50
2023-04-24T05:23:29.428Z,16.02
2023-04-24T05:25:57.556Z,17.35
2023-04-24T05:28:24.313Z,17.92
2023-04-24T05:31:03.627Z,19.35
2023-04-24T05:33:30.926Z,16.75
2023-04-24T05:35:57.553Z,17.90
2023-04-24T05:38:24.425Z,17.67
2023-04-24T05:40:51.287Z,20.83
2023-04-24T05:43:17.936Z,22.63
2023-04-24T05:45:44.748Z,26.70
2023-04-24T05:48:11.357Z,27.60
2023-04-24T05:50:37.973Z,29.15
2023-04-24T05:53:05.348Z,29.38
2023-04-24T05:55:34.847Z,31.27
2023-04-24T05:58:02.093Z,30.00
2023-04-24T06:00:30.234Z,28.15
2023-04-24T06:03:04.732Z,30.33
2023-04-24T06:05:32.091Z,29.17
2023-04-24T06:07:59.284Z,30.42
2023-04-24T06:10:30.380Z,30.15
2023-04-24T06:13:01.003Z,30.30
2023-04-24T06:15:31.435Z,30.65
2023-04-24T06:18:06.160Z,31.30
2023-04-24T06:20:33.592Z,30.80
2023-04-24T06:23:02.076Z,32.25
2023-04-24T06:25:29.550Z,32.65
2023-04-24T06:27:56.970Z,31.10
2023-04-24T06:30:24.028Z,30.92
2023-04-24T06:32:54.961Z,31.45
2023-04-24T06:35:22.562Z,31.65
2023-04-24T06:37:49.449Z,30.70
2023-04-24T06:40:16.213Z,29.73
2023-04-24T06:42:43.520Z,31.00
2023-04-24T06:45:10.881Z,33.03
2023-04-24T06:47:37.667Z,33.17
2023-04-24T06:50:20.211Z,34.35
2023-04-24T06:53:16.889Z,34.90
2023-04-24T06:55:52.102Z,35.63
2023-04-24T06:58:18.935Z,33.47
2023-04-24T07:00:46.521Z,34.38
2023-04-24T07:03:13.399Z,33.47
2023-04-24T07:05:40.586Z,32.38
2023-04-24T07:08:07.677Z,32.72
2023-04-24T07:10:36.483Z,33.90
2023-04-24T07:13:03.284Z,31.70
2023-04-24T07:15:30.318Z,32.45
2023-04-24T07:17:57.166Z,31.98
2023-04-24T07:20:23.913Z,31.35
2023-04-24T07:22:50.665Z,32.83
2023-04-24T07:25:17.360Z,33.90
2023-04-24T07:27:44.049Z,32.35
2023-04-24T07:30:11.219Z,31.70
2023-04-24T07:32:38.151Z,30.70
2023-04-24T07:35:05.165Z,30.08
2023-04-24T07:37:31.925Z,29.30
2023-04-24T07:39:58.729Z,29.88
2023-04-24T07:42:25.338Z,28.65
2023-04-24T07:44:52.126Z,27.95
2023-04-24T07:47:18.824Z,28.73
2023-04-24T07:49:45.971Z,29.17
2023-04-24T07:52:12.767Z,28.95
2023-04-24T07:54:39.414Z,27.23
2023-04-24T07:57:07.576Z,25.95
2023-04-24T07:59:34.206Z,26.23
2023-04-24T08:02:02.209Z,26.58
2023-04-24T08:04:29.279Z,26.90
2023-04-24T08:06:56.136Z,25.60
2023-04-24T08:09:22.836Z,27.13
2023-04-24T08:11:49.809Z,24.95
2023-04-24T08:14:16.534Z,26.10
2023-04-24T08:16:43.381Z,26.25
2023-04-24T08:19:10.311Z,26.75
2023-04-24T08:21:37.013Z,26.92
2023-04-24T08:24:06.103Z,27.65
2023-04-24T08:26:33.004Z,27.20
2023-04-24T08:28:59.733Z,28.80
2023-04-24T08:31:27.070Z,29.15
2023-04-24T08:33:53.746Z,26.15
2023-04-24T08:36:20.529Z,27.95
2023-04-24T08:38:47.609Z,26.50
2023-04-24T08:41:16.900Z,26.02
2023-04-24T08:43:44.218Z,27.08
2023-04-24T08:46:13.618Z,28.13
2023-04-24T08:48:41.195Z,26.35
2023-04-24T08:51:09.434Z,26.02
2023-04-24T08:53:36.807Z,37.55
2023-04-24T08:56:04.366Z,44.58
2023-04-24T08:58:34.009Z,38.30
2023-04-24T09:01:01.577Z,26.38
2023-04-24T09:03:29.594Z,25.98
2023-04-24T09:05:58.012Z,26.88
2023-04-24T09:08:27.002Z,25.65
2023-04-24T09:10:54.160Z,26.90
2023-04-24T09:13:21.616Z,27.02
2023-04-24T09:15:48.480Z,26.33
2023-04-24T09:18:15.231Z,29.95
2023-04-24T09:21:01.610Z,31.95
2023-04-24T09:23:29.779Z,29.38
2023-04-24T09:25:57.373Z,28.73
2023-04-24T09:28:42.930Z,28.92
2023-04-24T09:31:22.266Z,28.65
2023-04-24T09:33:57.339Z,27.45
2023-04-24T09:36:29.235Z,27.52
2023-04-24T09:39:02.797Z,27.25
2023-04-24T09:41:29.921Z,27.00
2023-04-24T09:43:57.491Z,25.92
2023-04-24T09:46:32.678Z,25.90
2023-04-24T09:49:10.182Z,26.55
2023-04-24T09:51:38.787Z,26.38
2023-04-24T09:54:14.059Z,26.27
2023-04-24T09:56:45.166Z,25.00
2023-04-24T09:59:12.164Z,26.42
2023-04-24T10:01:39.348Z,24.80
2023-04-24T10:04:06.339Z,24.38
2023-04-24T10:06:36.745Z,24.95
2023-04-24T10:09:04.542Z,25.15
2023-04-24T10:11:31.723Z,25.42
2023-04-24T10:13:59.266Z,24.35
2023-04-24T10:16:28.216Z,24.45
2023-04-24T10:18:56.016Z,24.83
2023-04-24T10:21:23.620Z,25.50
2023-04-24T10:23:50.982Z,24.05
2023-04-24T10:26:18.727Z,24.17
2023-04-24T10:28:46.886Z,24.90
2023-04-24T10:31:14.519Z,24.77
2023-04-24T10:33:43.256Z,24.80
2023-04-24T10:36:15.385Z,24.98
2023-04-24T10:38:44.389Z,25.38
2023-04-24T10:41:20.273Z,25.48
2023-04-24T10:43:49.580Z,22.95
2023-04-24T10:46:22.691Z,20.52
2023-04-24T10:48:56.402Z,18.33
2023-04-24T10:51:24.139Z,17.17
2023-04-24T10:53:52.318Z,18.50
2023-04-24T10:56:19.434Z,19.65
2023-04-24T10:58:52.968Z,20.95
2023-04-24T11:01:28.509Z,21.25
2023-04-24T11:04:00.353Z,20.15
2023-04-24T11:06:37.902Z,19.77
2023-04-24T11:09:08.734Z,19.85
2023-04-24T11:11:38.251Z,19.42
2023-04-24T11:14:07.445Z,18.15
2023-04-24T11:16:54.894Z,18.70
2023-04-24T11:19:29.612Z,20.15
2023-04-24T11:22:04.557Z,21.17
2023-04-24T11:24:40.298Z,19.95
2023-04-24T11:27:21.642Z,20.40
2023-04-24T11:29:57.858Z,20.83
2023-04-24T11:32:31.615Z,20.63
2023-04-24T11:35:06.175Z,20.27
2023-04-24T11:37:41.142Z,18.00
2023-04-24T11:40:12.674Z,15.65
2023-04-24T11:42:41.889Z,14.88
2023-04-24T11:45:11.175Z,13.30
2023-04-24T11:47:38.315Z,11.07
2023-04-24T11:50:09.122Z,10.00
2023-04-24T11:52:40.781Z,8.50
2023-04-24T11:55:17.400Z,7.72
2023-04-24T11:57:47.972Z,8.02
2023-04-24T12:00:22.546Z,9.80
2023-04-24T12:02:51.070Z,8.40
2023-04-24T12:05:36.175Z,9.52
2023-04-24T12:08:03.051Z,6.75
2023-04-24T12:10:31.051Z,11.23
2023-04-24T12:12:59.102Z,9.02
2023-04-24T12:15:26.571Z,7.72
2023-04-24T12:17:54.382Z,6.13
2023-04-24T12:20:31.944Z,5.82
2023-04-24T12:23:00.208Z,6.13
2023-04-24T12:25:32.176Z,8.15
2023-04-24T12:28:04.802Z,4.53
2023-04-24T12:30:39.197Z,4.65
2023-04-24T12:33:06.049Z,4.82
2023-04-24T12:35:36.361Z,6.43
2023-04-24T12:38:27.135Z,6.47
2023-04-24T12:41:05.302Z,6.03
2023-04-24T12:43:32.271Z,9.30
2023-04-24T12:46:00.003Z,7.53
2023-04-24T12:48:28.164Z,6.05
2023-04-24T12:50:55.571Z,7.63
2023-04-24T12:53:22.262Z,6.88
2023-04-24T12:55:53.614Z,7.22
2023-04-24T12:58:21.241Z,8.73
2023-04-24T13:00:48.518Z,10.18
2023-04-24T13:03:16.003Z,7.57
2023-04-24T13:05:43.852Z,7.82
2023-04-24T13:08:10.719Z,11.50
2023-04-24T13:10:37.542Z,10.05
2023-04-24T13:13:04.493Z,12.35
2023-04-24T13:15:31.478Z,15.23
2023-04-24T13:17:58.156Z,13.38
2023-04-24T13:20:24.884Z,13.82
2023-04-24T13:22:51.882Z,18.48
2023-04-24T13:25:19.058Z,20.23
2023-04-24T13:27:46.180Z,19.88
2023-04-24T13:30:13.552Z,20.88
2023-04-24T13:32:40.345Z,18.83
2023-04-24T13:35:07.580Z,17.52
2023-04-24T13:37:34.286Z,12.75
2023-04-24T13:40:01.010Z,17.58
2023-04-24T13:42:30.773Z,21.58
2023-04-24T13:44:57.441Z,17.15
2023-04-24T13:47:24.096Z,25.45
2023-04-24T13:49:51.082Z,16.63
2023-04-24T13:52:17.841Z,19.27
2023-04-24T13:54:44.708Z,18.75
2023-04-24T13:57:11.813Z,26.92
2023-04-24T13:59:39.007Z,26.85
2023-04-24T14:02:06.200Z,20.83
2023-04-24T14:04:33.635Z,31.70
2023-04-24T14:07:00.473Z,26.60
2023-04-24T14:09:27.103Z,33.20
2023-04-24T14:11:53.837Z,32.85
2023-04-24T14:14:20.454Z,39.15
2023-04-24T14:16:47.120Z,31.85
2023-04-24T14:19:13.739Z,30.85
2023-04-24T14:21:40.970Z,35.05
2023-04-24T14:24:07.733Z,34.03
2023-04-24T14:26:34.450Z,35.83
2023-04-24T14:29:11.626Z,42.45
2023-04-24T14:31:41.436Z,41.45
2023-04-24T14:34:08.256Z,40.08
2023-04-24T14:36:35.082Z,36.60
2023-04-24T14:39:06.497Z,50.33
2023-04-24T14:41:36.408Z,41.80
2023-04-24T14:44:04.169Z,44.75
2023-04-24T14:46:31.606Z,41.55
2023-04-24T14:48:59.031Z,40.33
2023-04-24T14:51:26.444Z,38.45
2023-04-24T14:53:53.351Z,39.95
2023-04-24T14:56:23.656Z,43.55
2023-04-24T14:58:50.297Z,29.73
2023-04-24T15:01:18.128Z,32.78
2023-04-24T15:03:45.668Z,24.65
2023-04-24T15:06:16.182Z,19.92
2023-04-24T15:08:43.464Z,25.60
2023-04-24T15:11:13.352Z,17.35
2023-04-24T15:13:40.071Z,15.82
2023-04-24T15:16:06.815Z,20.65
2023-04-24T15:18:33.955Z,17.15
2023-04-24T15:21:00.941Z,19.63
2023-04-24T15:23:27.786Z,16.42
2023-04-24T15:25:54.873Z,16.85
2023-04-24T15:28:22.606Z,18.98
2023-04-24T15:30:49.277Z,17.85
2023-04-24T15:33:16.096Z,25.98
2023-04-24T15:35:42.825Z,18.33
2023-04-24T15:38:09.611Z,24.05
2023-04-24T15:40:36.329Z,18.15
2023-04-24T15:43:03.332Z,19.23
2023-04-24T15:45:31.669Z,17.90
2023-04-24T15:47:58.400Z,18.05
2023-04-24T15:50:25.277Z,19.05
2023-04-24T15:52:51.925Z,18.73
2023-04-24T15:55:18.548Z,18.38
2023-04-24T15:57:45.222Z,19.33
2023-04-24T16:00:12.652Z,20.77
2023-04-24T16:02:40.556Z,19.83
2023-04-24T16:05:08.655Z,16.52
2023-04-24T16:07:36.127Z,17.65
2023-04-24T16:10:02.861Z,17.08
2023-04-24T16:12:29.678Z,18.58
2023-04-24T16:14:56.668Z,19.45
2023-04-24T16:17:23.672Z,19.83
2023-04-24T16:19:50.493Z,18.92
2023-04-24T16:22:17.262Z,20.85
2023-04-24T16:24:44.522Z,19.40
2023-04-24T16:27:11.230Z,21.10
2023-04-24T16:29:37.927Z,24.05
2023-04-24T16:32:05.051Z,17.67
2023-04-24T16:34:32.577Z,17.33
2023-04-24T16:36:59.243Z,16.92
2023-04-24T16:39:26.911Z,14.55
2023-04-24T16:41:55.198Z,15.10
2023-04-24T16:44:22.756Z,16.70
2023-04-24T16:46:49.507Z,16.55
2023-04-24T16:49:23.515Z,16.85
2023-04-24T16:51:50.728Z,17.98
2023-04-24T16:54:17.397Z,20.42
2023-04-24T16:56:44.069Z,16.83
2023-04-24T16:59:10.756Z,15.27
2023-04-24T17:01:37.359Z,16.55
2023-04-24T17:04:04.730Z,19.95
2023-04-24T17:06:31.483Z,20.88
2023-04-24T17:09:00.201Z,21.67
2023-04-24T17:11:29.247Z,19.52
2023-04-24T17:13:59.379Z,19.75
2023-04-24T17:16:26.217Z,20.23
2023-04-24T17:18:52.931Z,20.55
2023-04-24T17:21:19.587Z,22.17
2023-04-24T17:23:46.217Z,18.45
2023-04-24T17:26:12.845Z,20.77
2023-04-24T17:28:39.525Z,19.05
2023-04-24T17:31:06.512Z,21.73
2023-04-24T17:33:33.234Z,19.65
2023-04-24T17:36:03.186Z,20.25
2023-04-24T17:38:30.500Z,18.60
2023-04-24T17:40:58.148Z,18.88
2023-04-24T17:43:24.785Z,19.27
2023-04-24T17:45:55.852Z,20.30
2023-04-24T17:48:22.621Z,21.67
2023-04-24T17:50:49.743Z,16.95
2023-04-24T17:53:16.463Z,18.92
2023-04-24T17:55:49.035Z,16.88
2023-04-24T17:58:15.765Z,23.45
2023-04-24T18:00:42.697Z,14.60
2023-04-24T18:03:10.397Z,12.85
2023-04-24T18:05:38.826Z,13.90
2023-04-24T18:08:06.267Z,14.10
2023-04-24T18:10:36.937Z,13.48
2023-04-24T18:13:04.737Z,14.10
2023-04-24T18:15:31.768Z,14.93
2023-04-24T18:17:58.510Z,15.20
2023-04-24T18:20:25.249Z,16.02
2023-04-24T18:22:52.337Z,17.45
2023-04-24T18:25:26.057Z,14.75
2023-04-24T18:27:54.507Z,15.48
2023-04-24T18:30:21.874Z,15.32
2023-04-24T18:32:50.075Z,15.13
2023-04-24T18:35:17.406Z,16.70
2023-04-24T18:37:45.527Z,15.98
2023-04-24T18:40:13.509Z,14.98
2023-04-24T18:42:40.512Z,18.05
2023-04-24T18:45:08.152Z,14.80
2023-04-24T18:47:34.919Z,15.85
2023-04-24T18:50:01.723Z,14.18
2023-04-24T18:52:28.384Z,15.63
2023-04-24T18:54:55.560Z,16.90
2023-04-24T18:57:22.277Z,16.40
2023-04-24T18:59:49.158Z,18.05
2023-04-24T19:02:16.245Z,17.60
2023-04-24T19:04:42.988Z,17.40
2023-04-24T19:07:09.638Z,20.67
2023-04-24T19:09:36.365Z,15.85
2023-04-24T19:12:03.309Z,19.55
2023-04-24T19:14:30.076Z,19.88
2023-04-24T19:16:56.745Z,19.88
2023-04-24T19:19:25.805Z,17.05
2023-04-24T19:21:52.501Z,16.27
2023-04-24T19:24:19.507Z,19.20
2023-04-24T19:26:46.230Z,17.77
2023-04-24T19:29:13.227Z,18.52
2023-04-24T19:31:40.091Z,17.77
2023-04-24T19:34:06.854Z,17.75
2023-04-24T19:36:33.717Z,20.30
2023-04-24T19:39:01.104Z,24.95
2023-04-24T19:41:27.812Z,18.17
2023-04-24T19:43:54.455Z,18.70
2023-04-24T19:46:21.160Z,19.83
2023-04-24T19:48:48.196Z,20.52
2023-04-24T19:51:15.928Z,17.85
2023-04-24T19:53:43.372Z,18.50
2023-04-24T19:56:10.382Z,20.95
2023-04-24T19:58:37.176Z,17.83
2023-04-24T20:01:05.774Z,17.70
2023-04-24T20:03:34.332Z,19.38
2023-04-24T20:06:01.798Z,19.13
2023-04-24T20:08:28.561Z,21.33
2023-04-24T20:10:57.477Z,25.10
2023-04-24T20:13:27.425Z,21.27
2023-04-24T20:15:55.190Z,19.30
2023-04-24T20:18:22.131Z,19.10
2023-04-24T20:20:49.152Z,17.90
2023-04-24T20:23:15.780Z,19.05
2023-04-24T20:25:42.405Z,19.35
2023-04-24T20:28:09.010Z,17.95
2023-04-24T20:30:35.701Z,17.13
2023-04-24T20:33:02.404Z,17.77
2023-04-24T20:35:29.110Z,20.45
2023-04-24T20:37:55.807Z,20.10
2023-04-24T20:40:23.577Z,19.48
2023-04-24T20:42:50.405Z,18.88
2023-04-24T20:45:17.930Z,25.25
2023-04-24T20:47:44.630Z,23.85
2023-04-24T20:50:11.938Z,20.10
2023-04-24T20:52:38.604Z,18.38
2023-04-24T20:55:06.666Z,22.25
2023-04-24T20:57:33.437Z,27.10
2023-04-24T21:00:00.210Z,19.58
2023-04-24T21:02:27.049Z,19.45
2023-04-24T21:04:53.696Z,18.88
2023-04-24T21:07:20.536Z,27.80
2023-04-24T21:09:47.229Z,22.13
2023-04-24T21:12:13.872Z,20.85
2023-04-24T21:14:40.973Z,23.17
2023-04-24T21:17:07.595Z,27.77
2023-04-24T21:19:34.242Z,22.67
2023-04-24T21:22:00.931Z,28.40
2023-04-24T21:24:27.627Z,25.35
2023-04-24T21:26:54.353Z,26.13
2023-04-24T21:29:21.429Z,20.90
2023-04-24T21:31:48.154Z,28.80
2023-04-24T21:34:15.182Z,23.48
2023-04-24T21:36:41.924Z,24.40
2023-04-24T21:39:08.554Z,27.92
2023-04-24T21:41:35.457Z,26.95
2023-04-24T21:44:02.481Z,29.33
2023-04-24T21:46:29.191Z,36.33
2023-04-24T21:48:55.880Z,35.38
2023-04-24T21:51:22.599Z,29.13
2023-04-24T21:53:49.472Z,29.45
2023-04-24T21:56:16.328Z,39.20
2023-04-24T21:58:43.150Z,31.95
2023-04-24T22:01:09.823Z,33.60
2023-04-24T22:03:36.628Z,36.45
2023-04-24T22:06:03.517Z,31.23
2023-04-24T22:08:30.228Z,40.10
2023-04-24T22:10:56.898Z,35.50
2023-04-24T22:13:23.819Z,34.47
2023-04-24T22:15:50.906Z,32.13
2023-04-24T22:18:18.695Z,29.55
2023-04-24T22:20:46.394Z,34.25
2023-04-24T22:23:13.224Z,30.50
2023-04-24T22:25:39.855Z,29.98
2023-04-24T22:28:06.682Z,32.83
2023-04-24T22:30:33.329Z,36.85
2023-04-24T22:33:00.077Z,38.67
2023-04-24T22:35:26.840Z,43.92
2023-04-24T22:37:56.878Z,39.50
2023-04-24T22:40:24.807Z,31.38
2023-04-24T22:42:51.647Z,30.60
2023-04-24T22:45:18.466Z,36.35
2023-04-24T22:47:45.089Z,22.85
2023-04-24T22:50:11.753Z,32.85
2023-04-24T22:52:38.464Z,31.25
2023-04-24T22:55:05.429Z,22.80
2023-04-24T22:57:32.167Z,26.30
2023-04-24T22:59:59.134Z,28.17
2023-04-24T23:02:25.911Z,25.50
2023-04-24T23:04:54.156Z,22.17
2023-04-24T23:07:20.909Z,33.92
2023-04-24T23:09:47.495Z,28.45
2023-04-24T23:12:14.124Z,31.95
2023-04-24T23:14:40.732Z,36.55
2023-04-24T23:17:07.411Z,28.63
2023-04-24T23:19:34.042Z,23.75
2023-04-24T23:22:00.849Z,28.27
2023-04-24T23:24:27.773Z,23.98
2023-04-24T23:26:54.427Z,37.50
2023-04-24T23:29:23.001Z,33.15
2023-04-24T23:31:49.824Z,28.65
2023-04-24T23:34:18.616Z,31.10
2023-04-24T23:36:48.383Z,33.03
2023-04-24T23:39:15.316Z,31.48
2023-04-24T23:41:44.348Z,30.58
2023-04-24T23:44:11.760Z,26.35
2023-04-24T23:46:38.670Z,25.33
2023-04-24T23:49:05.292Z,33.83
2023-04-24T23:51:32.199Z,36.25
2023-04-24T23:53:59.102Z,27.98
2023-04-24T23:56:26.633Z,30.27
2023-04-24T23:58:53.604Z,38.20
